Latest Weather Observations for Georgetown Airport

IDQ60801

Issued at 7:32 pm EST Sunday 20 August 2017 (issued every 30 minutes, with the page automatically refreshed every 10 minutes)

About weather observations | Map of weather stations | Latest weather observations for QLD | Other Formats
Station Details ID: 030124 Name: GEORGETOWN AIRPORT Lat: -18.30 Lon: 143.53 Height: 301.77 m
Data from the previous 72 hours. | See also: Recent months at Georgetown Airport
Date/Time
EST
Temp
°C
App
Temp
°C
Dew
Point
°C
Rel
Hum
%
Delta-T
°C
Wind Press
QNH
hPa
Press
MSL
hPa
Rain since
9am
mm
Dir  Spd
km/h
Gust
km/h
Spd
kts
Gust
kts
20/07:30pm 24.6 19.4 -10.3 9 13.4 SE 11 17 6 9 1014.7 - 0.0
20/07:00pm 24.5 19.3 -10.4 9 13.4 SE 11 15 6 8 1014.6 - 0.0
20/06:30pm 26.0 21.1 -12.4 7 14.4 ESE 9 13 5 7 1014.1 - 0.0
20/06:00pm 28.3 23.0 -12.7 6 15.7 E 11 15 6 8 1013.9 1012.7 0.0
20/05:30pm 29.9 24.1 -13.8 5 16.7 E 13 19 7 10 1013.7 - 0.0
20/05:00pm 30.7 25.2 -15.9 4 17.3 ESE 11 20 6 11 1013.5 - 0.0
20/04:30pm 30.9 25.5 -13.1 5 17.1 SSE 11 19 6 10 1013.5 - 0.0
20/04:00pm 31.8 27.4 -10.2 6 17.3 SSW 7 15 4 8 1013.4 - 0.0
20/03:30pm 30.7 26.3 -10.9 6 16.8 NE 7 13 4 7 1013.6 - 0.0
20/03:00pm 30.3 25.1 -11.2 6 16.6 SSE 11 19 6 10 1013.8 1012.6 0.0
20/02:30pm 29.9 25.2 -9.6 7 16.2 ESE 9 15 5 8 1014.3 - 0.0
20/02:08pm 29.4 24.6 -9.9 7 15.9 SSW 9 13 5 7 1014.8 - 0.0
20/02:00pm 29.7 24.6 -9.7 7 16.1 S 11 17 6 9 1015.0 - 0.0
20/01:30pm 28.8 23.2 -10.4 7 15.7 NNE 13 19 7 10 1015.5 - 0.0
20/01:00pm 29.0 24.4 -8.5 8 15.5 NNE 9 15 5 8 1015.9 - 0.0
20/12:30pm 28.1 22.6 -9.2 8 15.1 SE 13 24 7 13 1016.5 - 0.0
20/12:00pm 27.3 21.9 -8.3 9 14.5 ESE 13 20 7 11 1017.1 1015.9 0.0
20/11:30am 26.4 21.0 -9.0 9 14.2 ENE 13 22 7 12 1017.6 - 0.0
20/11:00am 25.5 20.0 -9.7 9 13.8 ESE 13 24 7 13 1018.1 - 0.0
20/10:30am 24.9 18.7 -8.8 10 13.3 E 17 24 9 13 1018.3 - 0.0
20/10:00am 24.2 17.6 -9.3 10 13.1 E 19 28 10 15 1018.4 - 0.0
20/09:30am 22.5 15.0 -8.3 12 12.0 E 24 41 13 22 1018.5 - 0.0
20/09:00am 21.9 14.8 -8.8 12 11.8 E 22 35 12 19 1018.4 1017.2 0.0
20/08:30am 21.2 14.1 -8.3 13 11.4 E 22 33 12 18 1018.4 - 0.0
20/08:00am 19.9 13.4 -8.4 14 10.7 ESE 19 30 10 16 1018.0 - 0.0
20/07:30am 19.3 13.9 -8.8 14 10.5 ESE 13 28 7 15 1017.5 - 0.0
20/07:00am 18.6 12.7 -9.4 14 10.2 ESE 15 24 8 13 1017.2 - 0.0
20/06:30am 18.7 13.2 -10.2 13 10.4 ESE 13 20 7 11 1016.8 - 0.0
20/06:00am 19.0 12.7 -10.0 13 10.5 ESE 17 26 9 14 1016.5 1015.3 0.0
20/05:30am 19.3 13.0 -10.8 12 10.8 ESE 17 33 9 18 1016.4 - 0.0
20/05:00am 19.1 13.5 -10.9 12 10.7 ESE 13 20 7 11 1016.2 - 0.0
20/04:30am 18.7 14.2 -11.2 12 10.6 SE 7 19 4 10 1016.1 - 0.0
20/04:00am 19.5 14.6 -11.7 11 11.0 SE 9 19 5 10 1016.2 - 0.0
20/03:30am 19.9 14.7 -11.4 11 11.2 ESE 11 20 6 11 1016.2 - 0.0
20/03:00am 19.7 14.1 -10.5 12 10.9 ESE 13 19 7 10 1016.4 1015.2 0.0
20/02:30am 16.7 12.2 -7.0 19 8.9 SSE 9 11 5 6 1016.6 - 0.0
20/02:00am 17.0 12.5 -6.8 19 9.0 S 9 11 5 6 1016.7 - 0.0
20/01:30am 17.6 13.7 -5.0 21 9.0 S 7 11 4 6 1016.9 - 0.0
20/01:00am 18.0 13.7 -4.6 21 9.1 SSW 9 11 5 6 1016.9 - 0.0
20/12:30am 18.9 14.7 -3.9 21 9.4 S 9 13 5 7 1017.1 - 0.0
20/12:00am 19.4 15.2 -3.5 21 9.5 S 9 11 5 6 1017.2 1016.0 0.0
 
Date/Time
EST
Temp
°C
App
Temp
°C
Dew
Point
°C
Rel
Hum
%
Delta-T
°C
Wind Press
QNH
hPa
Press
MSL
hPa
Rain since
9am
mm
Dir  Spd
km/h
Gust
km/h
Spd
kts
Gust
kts
19/11:30pm 19.2 15.3 -1.8 24 9.0 S 9 11 5 6 1017.5 - 0.0
19/11:00pm 19.8 16.2 -1.9 23 9.4 S 7 9 4 5 1017.7 - 0.0
19/10:30pm 21.9 18.4 -1.4 21 10.3 S 7 9 4 5 1017.7 - 0.0
19/10:00pm 23.0 19.2 -1.1 20 10.9 S 9 11 5 6 1017.6 - 0.0
19/09:30pm 23.5 19.8 -0.1 21 10.9 S 9 13 5 7 1017.4 - 0.0
19/09:00pm 24.7 21.1 0.3 20 11.4 S 9 13 5 7 1017.0 1015.8 0.0
19/08:30pm 25.7 21.7 0.4 19 12.0 S 11 19 6 10 1016.6 - 0.0
19/08:00pm 26.4 22.5 0.9 19 12.2 SSW 11 17 6 9 1016.1 - 0.0
19/07:30pm 27.4 23.1 1.0 18 12.8 SSW 13 20 7 11 1015.5 - 0.0
19/07:00pm 28.3 24.0 0.9 17 13.3 SSW 13 20 7 11 1015.1 - 0.0
19/06:30pm 29.2 24.4 -0.1 15 14.1 SSW 15 26 8 14 1014.7 - 0.0
19/06:00pm 30.5 25.1 1.0 15 14.6 SSW 19 30 10 16 1014.1 1012.9 0.0
19/05:30pm 31.9 26.9 1.1 14 15.4 SSW 17 28 9 15 1013.9 - 0.0
19/05:00pm 32.8 28.5 0.8 13 16.0 S 13 22 7 12 1013.8 - 0.0
19/04:30pm 32.5 27.4 0.6 13 15.9 S 17 32 9 17 1013.9 - 0.0
19/04:00pm 33.5 28.7 0.2 12 16.6 SSW 15 26 8 14 1014.0 - 0.0
19/03:30pm 32.6 27.5 0.6 13 15.9 S 17 24 9 13 1014.1 - 0.0
19/03:00pm 32.9 28.9 2.9 15 15.5 SSE 13 22 7 12 1014.5 1013.2 0.0
19/02:30pm 32.5 27.1 2.5 15 15.4 SSW 20 35 11 19 1014.9 - 0.0
19/02:00pm 32.1 26.7 2.2 15 15.2 S 20 33 11 18 1015.3 - 0.0
19/01:30pm 31.8 28.0 2.0 15 15.1 SSE 11 24 6 13 1015.9 - 0.0
19/01:00pm 32.2 28.3 3.2 16 15.0 SE 13 28 7 15 1016.5 - 0.0
19/12:30pm 31.2 26.0 2.4 16 14.6 SSE 19 26 10 14 1017.1 - 0.0
19/12:00pm 31.4 27.0 2.6 16 14.7 ESE 15 24 8 13 1017.4 1016.2 0.0
19/11:30am 30.2 25.4 2.5 17 14.0 ESE 17 28 9 15 1017.7 - 0.0
19/11:00am 29.6 25.0 3.5 19 13.4 SE 17 32 9 17 1018.4 - 0.0
19/10:30am 29.2 24.5 3.2 19 13.2 ESE 17 30 9 16 1018.7 - 0.0
19/10:00am 28.2 23.5 3.1 20 12.7 ESE 17 28 9 15 1018.8 - 0.0
19/09:30am 27.3 22.0 3.1 21 12.2 ESE 20 30 11 16 1018.8 - 0.0
19/09:00am 27.1 22.1 3.6 22 11.9 SE 19 26 10 14 1018.6 1017.4 0.0
19/08:30am 25.9 22.2 4.4 25 10.9 SE 13 24 7 13 1018.4 - 0.0
19/08:00am 23.3 22.0 6.1 33 8.9 SE 2 7 1 4 1018.3 - 0.0
19/07:30am 19.7 18.0 7.4 45 6.4 SE 6 7 3 4 1017.8 - 0.0
19/07:00am 19.7 17.6 6.8 43 6.6 SSE 7 9 4 5 1017.5 - 0.0
19/06:30am 19.2 17.2 8.8 51 5.5 SSE 9 11 5 6 1017.3 - 0.0
19/06:00am 17.6 16.2 9.5 59 4.3 S 7 13 4 7 1017.1 1015.9 0.0
19/05:30am 17.9 16.2 10.0 60 4.3 S 9 11 5 6 1017.0 - 0.0
19/05:00am 17.2 15.7 8.6 57 4.5 S 6 7 3 4 1016.7 - 0.0
19/04:30am 19.8 18.0 9.4 51 5.6 S 9 11 5 6 1016.6 - 0.0
19/04:00am 20.4 18.6 9.3 49 6.0 S 9 13 5 7 1016.7 - 0.0
19/03:30am 21.1 19.7 9.4 47 6.3 S 7 11 4 6 1016.6 - 0.0
19/03:00am 21.2 19.0 9.4 47 6.4 S 11 17 6 9 1016.6 1015.4 0.0
19/02:30am 19.7 17.9 9.3 51 5.6 SSW 9 9 5 5 1016.6 - 0.0
19/02:19am 19.5 17.9 8.8 50 5.7 S 7 11 4 6 1016.6 - 0.0
19/02:18am 19.5 17.9 8.8 50 5.7 S 7 11 4 6 1016.6 - 0.0
19/02:00am 20.8 19.3 9.1 47 6.3 SSW 7 9 4 5 1016.6 - 0.0
19/01:45am 21.5 19.7 9.4 46 6.6 SW 9 11 5 6 1016.7 - 0.0
19/01:39am 21.2 19.3 9.1 46 6.5 WSW 9 11 5 6 1016.7 - 0.0
19/01:30am 21.6 20.2 9.5 46 6.6 W 7 11 4 6 1016.7 - 0.0
19/01:00am 22.7 21.1 8.0 39 7.8 SSE 6 9 3 5 1016.4 - 0.0
19/12:30am 24.6 22.8 9.3 38 8.4 SE 9 13 5 7 1016.3 - 0.0
19/12:00am 24.3 22.3 8.7 37 8.5 ESE 9 13 5 7 1016.3 1015.1 0.0
 
Date/Time
EST
Temp
°C
App
Temp
°C
Dew
Point
°C
Rel
Hum
%
Delta-T
°C
Wind Press
QNH
hPa
Press
MSL
hPa
Rain since
9am
mm
Dir  Spd
km/h
Gust
km/h
Spd
kts
Gust
kts
18/11:30pm 24.8 22.7 8.3 35 8.9 ESE 9 15 5 8 1016.4 - 0.0
18/11:00pm 24.5 22.2 7.6 34 9.0 ESE 9 13 5 7 1016.4 - 0.0
18/10:30pm 24.1 21.6 8.1 36 8.6 ESE 11 15 6 8 1016.4 - 0.0
18/10:00pm 20.9 18.6 7.5 42 7.0 ESE 9 11 5 6 1016.2 - 0.0
18/09:30pm 20.7 19.2 7.0 41 7.1 SE 4 9 2 5 1015.8 - 0.0
18/09:00pm 21.8 19.9 6.9 38 7.7 S 6 7 3 4 1015.6 1014.4 0.0
18/08:30pm 22.6 20.5 6.0 34 8.5 SE 6 6 3 3 1015.4 - 0.0
18/08:00pm 23.3 22.0 6.1 33 8.9 ESE 2 6 1 3 1015.0 - 0.0
18/07:30pm 25.3 24.4 6.0 29 10.1 CALM 0 0 0 0 1014.6 - 0.0
18/07:00pm 27.1 26.1 5.4 25 11.3 CALM 0 6 0 3 1014.1 - 0.0
18/06:30pm 30.1 27.6 4.7 20 13.3 E 7 7 4 4 1013.7 - 0.0
18/06:00pm 32.7 30.2 4.5 17 15.0 SE 7 11 4 6 1013.6 1012.4 0.0
18/05:30pm 34.1 30.4 4.7 16 15.8 SSE 13 19 7 10 1013.4 - 0.0
18/05:00pm 34.8 32.0 5.3 16 16.0 SE 9 17 5 9 1013.3 - 0.0
18/04:30pm 35.0 31.1 3.5 14 16.7 SSE 13 20 7 11 1013.1 - 0.0
18/04:00pm 35.1 31.8 4.6 15 16.4 SE 11 20 6 11 1013.1 - 0.0
18/03:30pm 35.4 31.8 4.8 15 16.6 SSE 13 24 7 13 1013.1 - 0.0
18/03:00pm 35.7 32.1 5.1 15 16.7 ESE 13 26 7 14 1013.3 1012.1 0.0
18/02:30pm 34.5 31.3 5.0 16 15.9 E 11 26 6 14 1013.7 - 0.0
18/02:00pm 35.3 32.2 5.7 16 16.2 SE 11 28 6 15 1014.0 - 0.0
18/01:30pm 33.8 31.3 8.4 21 14.4 SSE 11 24 6 13 1014.5 - 0.0
18/01:00pm 33.0 32.1 11.5 27 12.8 S 7 13 4 7 1015.1 - 0.0
18/12:30pm 31.4 30.8 11.7 29 11.7 E 6 13 3 7 1015.7 - 0.0
18/12:00pm 31.6 31.3 13.4 33 11.1 W 7 11 4 6 1016.3 1015.1 0.0
18/11:30am 29.3 29.1 13.5 38 9.5 N 7 15 4 8 1016.9 - 0.0
18/11:00am 28.9 29.4 15.1 43 8.5 WNW 6 9 3 5 1017.4 - 0.0
18/10:30am 27.6 28.4 14.9 45 7.8 NNW 4 9 2 5 1017.8 - 0.0
18/10:00am 26.9 26.9 15.3 49 7.1 N 9 13 5 7 1018.2 - 0.0
18/09:30am 25.8 26.4 15.2 52 6.5 NNE 6 9 3 5 1018.3 - 0.0
18/09:00am 24.6 25.0 15.2 55 5.7 N 7 13 4 7 1018.2 1017.0 0.0
18/08:30am 22.8 22.8 13.6 56 5.4 NE 6 9 3 5 1018.0 - 0.0
18/08:00am 20.1 20.4 12.3 61 4.4 E 2 7 1 4 1017.8 - 0.0
18/07:30am 16.1 16.1 9.8 66 3.3 CALM 0 0 0 0 1017.4 - 0.0
18/07:00am 13.8 13.5 8.8 72 2.6 CALM 0 0 0 0 1016.9 - 0.0
18/06:30am 13.2 12.9 8.7 74 2.3 CALM 0 0 0 0 1016.5 - 0.0
18/06:00am 13.5 13.1 8.1 70 2.7 CALM 0 0 0 0 1015.9 1014.7 0.0
18/05:30am 14.0 13.2 8.0 67 3.0 NE 2 6 1 3 1015.4 - 0.0
18/05:00am 14.2 13.8 8.2 67 3.0 CALM 0 0 0 0 1015.2 - 0.0
18/04:30am 14.6 14.1 7.9 64 3.4 CALM 0 0 0 0 1014.8 - 0.0
18/04:00am 14.5 13.2 7.5 63 3.5 W 4 6 2 3 1014.6 - 0.0
18/03:30am 15.0 14.5 7.8 62 3.6 CALM 0 0 0 0 1014.3 - 0.0
18/03:00am 15.3 13.6 8.5 64 3.5 SSW 7 11 4 6 1014.3 1013.1 0.0
18/02:30am 15.1 14.5 7.6 61 3.8 CALM 0 0 0 0 1014.0 - 0.0
18/02:00am 15.1 14.5 7.6 61 3.8 CALM 0 0 0 0 1013.8 - 0.0
18/01:30am 16.0 15.4 7.5 57 4.3 CALM 0 0 0 0 1013.9 - 0.0
18/01:00am 16.5 16.0 8.0 57 4.4 CALM 0 0 0 0 1013.9 - 0.0
18/12:30am 16.9 15.3 8.1 56 4.5 E 6 9 3 5 1014.0 - 0.0
18/12:00am 18.3 17.8 8.0 51 5.3 CALM 0 0 0 0 1013.8 1012.6 0.0
 
Date/Time
EST
Temp
°C
App
Temp
°C
Dew
Point
°C
Rel
Hum
%
Delta-T
°C
Wind Press
QNH
hPa
Press
MSL
hPa
Rain since
9am
mm
Dir  Spd
km/h
Gust
km/h
Spd
kts
Gust
kts
17/11:30pm 18.9 17.2 7.7 48 5.8 SSE 6 7 3 4 1013.9 - 0.0
17/11:00pm 20.3 19.8 7.7 44 6.6 CALM 0 6 0 3 1014.0 - 0.0
17/10:30pm 21.3 19.4 8.9 45 6.7 S 9 13 5 7 1014.1 - 0.0
17/10:00pm 19.9 18.5 9.5 51 5.6 SE 7 11 4 6 1013.9 - 0.0
17/09:30pm 19.9 18.8 8.6 48 6.0 S 4 7 2 4 1013.8 - 0.0
17/09:00pm 21.8 20.8 8.7 43 7.0 SSW 4 7 2 4 1013.7 1012.5 0.0
17/08:30pm 21.6 20.0 7.8 41 7.3 SSW 6 7 3 4 1013.5 - 0.0
17/08:00pm 23.7 23.2 7.8 36 8.5 CALM 0 6 0 3 1013.2 - 0.0

Other Formats:

Comma delimited format used in spreadsheet applications
http://www.bom.gov.au/fwo/IDQ60801/IDQ60801.94274.axf

JavaScript Object Notation format (JSON) in row-major order
http://www.bom.gov.au/fwo/IDQ60801/IDQ60801.94274.json